sensor_id;sensor_type;location;lat;lon;timestamp;pressure;altitude;pressure_sealevel;temperature;humidity
63808;BME280;49961;43.970;22.868;2022-09-19T00:00:12;101381.44;;;11.54;100.00
63808;BME280;49961;43.970;22.868;2022-09-19T00:01:16;101382.22;;;11.55;100.00
63808;BME280;49961;43.970;22.868;2022-09-19T00:02:17;101379.81;;;11.57;100.00
63808;BME280;49961;43.970;22.868;2022-09-19T00:03:18;101386.22;;;11.54;100.00
63808;BME280;49961;43.970;22.868;2022-09-19T00:04:21;101386.97;;;11.54;100.00
63808;BME280;49961;43.970;22.868;2022-09-19T00:05:22;101380.25;;;11.55;100.00
63808;BME280;49961;43.970;22.868;2022-09-19T00:06:23;101380.25;;;11.55;100.00
63808;BME280;49961;43.970;22.868;2022-09-19T00:07:26;101385.34;;;11.57;100.00
63808;BME280;49961;43.970;22.868;2022-09-19T00:08:26;101377.09;;;11.53;100.00
63808;BME280;49961;43.970;22.868;2022-09-19T00:09:30;101373.63;;;11.49;100.00
63808;BME280;49961;43.970;22.868;2022-09-19T00:10:36;101376.06;;;11.44;100.00
63808;BME280;49961;43.970;22.868;2022-09-19T00:11:42;101377.63;;;11.45;100.00
63808;BME280;49961;43.970;22.868;2022-09-19T00:12:44;101365.97;;;11.30;100.00
63808;BME280;49961;43.970;22.868;2022-09-19T00:13:46;101385.28;;;11.37;100.00
63808;BME280;49961;43.970;22.868;2022-09-19T00:14:48;101373.41;;;11.37;100.00
63808;BME280;49961;43.970;22.868;2022-09-19T00:15:50;101373.44;;;11.33;100.00
63808;BME280;49961;43.970;22.868;2022-09-19T00:16:55;101380.25;;;11.29;100.00
63808;BME280;49961;43.970;22.868;2022-09-19T00:17:56;101385.44;;;11.27;100.00
63808;BME280;49961;43.970;22.868;2022-09-19T00:19:03;101379.16;;;11.23;100.00
63808;BME280;49961;43.970;22.868;2022-09-19T00:20:05;101318.31;;;10.82;100.00
63808;BME280;49961;43.970;22.868;2022-09-19T00:21:07;101372.47;;;11.20;100.00
63808;BME280;49961;43.970;22.868;2022-09-19T00:22:07;101328.56;;;10.85;100.00
63808;BME280;49961;43.970;22.868;2022-09-19T00:23:10;101375.28;;;11.17;100.00
63808;BME280;49961;43.970;22.868;2022-09-19T00:24:29;101353.81;;;10.94;100.00
63808;BME280;49961;43.970;22.868;2022-09-19T00:25:45;101378.53;;;11.12;100.00
63808;BME280;49961;43.970;22.868;2022-09-19T00:26:46;101378.16;;;11.10;100.00
63808;BME280;49961;43.970;22.868;2022-09-19T00:27:47;101379.72;;;11.11;100.00
63808;BME280;49961;43.970;22.868;2022-09-19T00:28:47;101310.63;;;10.67;100.00
63808;BME280;49961;43.970;22.868;2022-09-19T00:29:48;101376.91;;;11.14;100.00
63808;BME280;49961;43.970;22.868;2022-09-19T00:30:48;101359.63;;;11.03;100.00
63808;BME280;49961;43.970;22.868;2022-09-19T00:31:50;101360.06;;;11.02;100.00
63808;BME280;49961;43.970;22.868;2022-09-19T00:32:51;101375.28;;;11.17;100.00
63808;BME280;49961;43.970;22.868;2022-09-19T00:33:53;101358.84;;;11.03;100.00
63808;BME280;49961;43.970;22.868;2022-09-19T00:34:54;101369.75;;;11.17;100.00
63808;BME280;49961;43.970;22.868;2022-09-19T00:35:57;101377.63;;;11.18;100.00
63808;BME280;49961;43.970;22.868;2022-09-19T00:36:58;101389.88;;;11.21;100.00
63808;BME280;49961;43.970;22.868;2022-09-19T00:37:59;101376.00;;;11.21;100.00
63808;BME280;49961;43.970;22.868;2022-09-19T00:39:00;101387.91;;;11.21;100.00
63808;BME280;49961;43.970;22.868;2022-09-19T00:40:00;101372.47;;;11.20;100.00
63808;BME280;49961;43.970;22.868;2022-09-19T00:41:01;101374.13;;;11.14;100.00
63808;BME280;49961;43.970;22.868;2022-09-19T00:42:02;101375.31;;;11.13;100.00
63808;BME280;49961;43.970;22.868;2022-09-19T00:43:02;101375.66;;;11.19;100.00
63808;BME280;49961;43.970;22.868;2022-09-19T00:45:23;101308.31;;;10.62;100.00
63808;BME280;49961;43.970;22.868;2022-09-19T00:46:27;101374.22;;;11.07;100.00
63808;BME280;49961;43.970;22.868;2022-09-19T00:47:34;101371.91;;;11.02;100.00
63808;BME280;49961;43.970;22.868;2022-09-19T00:48:35;101371.50;;;11.04;100.00
63808;BME280;49961;43.970;22.868;2022-09-19T00:49:41;101372.72;;;11.03;100.00
63808;BME280;49961;43.970;22.868;2022-09-19T00:50:49;101307.63;;;10.54;100.00
63808;BME280;49961;43.970;22.868;2022-09-19T00:51:54;101375.16;;;10.97;100.00
63808;BME280;49961;43.970;22.868;2022-09-19T00:53:15;101384.22;;;11.01;100.00
63808;BME280;49961;43.970;22.868;2022-09-19T00:54:38;101376.31;;;11.00;100.00
63808;BME280;49961;43.970;22.868;2022-09-19T00:55:41;101385.84;;;10.99;100.00
63808;BME280;49961;43.970;22.868;2022-09-19T00:56:48;101375.94;;;10.98;100.00
63808;BME280;49961;43.970;22.868;2022-09-19T00:58:07;101387.44;;;10.96;100.00
63808;BME280;49961;43.970;22.868;2022-09-19T00:59:10;101376.34;;;10.96;100.00
63808;BME280;49961;43.970;22.868;2022-09-19T01:00:11;101376.34;;;10.96;100.00
63808;BME280;49961;43.970;22.868;2022-09-19T01:01:13;101380.69;;;10.97;100.00
63808;BME280;49961;43.970;22.868;2022-09-19T01:02:17;101373.19;;;10.98;100.00
63808;BME280;49961;43.970;22.868;2022-09-19T01:03:21;101370.81;;;10.96;100.00
63808;BME280;49961;43.970;22.868;2022-09-19T01:04:26;101371.22;;;10.95;100.00
63808;BME280;49961;43.970;22.868;2022-09-19T01:05:45;101328.53;;;10.59;100.00
63808;BME280;49961;43.970;22.868;2022-09-19T01:08:17;101363.28;;;10.97;100.00
63808;BME280;49961;43.970;22.868;2022-09-19T01:10:54;101365.25;;;10.96;100.00
63808;BME280;49961;43.970;22.868;2022-09-19T01:12:04;101365.31;;;10.93;100.00
63808;BME280;49961;43.970;22.868;2022-09-19T01:13:15;101365.31;;;10.93;100.00
63808;BME280;49961;43.970;22.868;2022-09-19T01:14:55;101353.44;;;10.92;100.00
63808;BME280;49961;43.970;22.868;2022-09-19T01:16:09;101360.97;;;10.92;100.00
63808;BME280;49961;43.970;22.868;2022-09-19T01:17:45;101364.16;;;10.90;100.00
63808;BME280;49961;43.970;22.868;2022-09-19T01:19:10;101362.25;;;10.84;100.00
63808;BME280;49961;43.970;22.868;2022-09-19T01:20:30;101366.13;;;10.90;100.00
63808;BME280;49961;43.970;22.868;2022-09-19T01:21:44;101358.63;;;10.90;100.00
63808;BME280;49961;43.970;22.868;2022-09-19T01:24:49;101338.97;;;10.78;100.00
63808;BME280;49961;43.970;22.868;2022-09-19T01:28:25;101352.78;;;10.81;100.00
63808;BME280;49961;43.970;22.868;2022-09-19T01:29:36;101348.13;;;10.75;100.00
63808;BME280;49961;43.970;22.868;2022-09-19T01:30:42;101355.22;;;10.79;100.00
63808;BME280;49961;43.970;22.868;2022-09-19T01:31:48;101352.44;;;10.79;100.00
63808;BME280;49961;43.970;22.868;2022-09-19T01:33:06;101339.59;;;10.62;100.00
63808;BME280;49961;43.970;22.868;2022-09-19T01:34:22;101350.44;;;10.80;100.00
63808;BME280;49961;43.970;22.868;2022-09-19T01:35:29;101353.25;;;10.76;100.00
63808;BME280;49961;43.970;22.868;2022-09-19T01:36:35;101347.75;;;10.73;100.00
63808;BME280;49961;43.970;22.868;2022-09-19T01:37:42;101349.28;;;10.77;100.00
63808;BME280;49961;43.970;22.868;2022-09-19T01:38:44;101330.38;;;10.69;100.00
63808;BME280;49961;43.970;22.868;2022-09-19T01:39:49;101190.59;;;9.80;100.00
63808;BME280;49961;43.970;22.868;2022-09-19T01:40:51;101343.25;;;10.82;100.00
63808;BME280;49961;43.970;22.868;2022-09-19T01:41:53;101339.66;;;10.85;100.00
63808;BME280;49961;43.970;22.868;2022-09-19T01:42:55;101340.03;;;10.87;100.00
63808;BME280;49961;43.970;22.868;2022-09-19T01:44:01;101347.56;;;10.87;100.00
63808;BME280;49961;43.970;22.868;2022-09-19T01:45:09;101268.13;;;10.47;100.00
63808;BME280;49961;43.970;22.868;2022-09-19T01:46:44;101348.72;;;10.89;100.00
63808;BME280;49961;43.970;22.868;2022-09-19T01:48:22;101345.16;;;10.89;100.00
63808;BME280;49961;43.970;22.868;2022-09-19T01:49:50;101350.34;;;10.87;100.00
63808;BME280;49961;43.970;22.868;2022-09-19T01:54:37;101343.09;;;10.66;100.00
63808;BME280;49961;43.970;22.868;2022-09-19T01:55:41;101342.72;;;10.64;100.00
63808;BME280;49961;43.970;22.868;2022-09-19T01:56:54;101343.94;;;10.63;100.00
63808;BME280;49961;43.970;22.868;2022-09-19T01:58:11;101349.88;;;10.62;100.00
63808;BME280;49961;43.970;22.868;2022-09-19T01:59:40;101349.88;;;10.62;100.00
63808;BME280;49961;43.970;22.868;2022-09-19T02:01:08;101347.53;;;10.60;100.00
63808;BME280;49961;43.970;22.868;2022-09-19T02:02:42;101345.97;;;10.59;100.00
63808;BME280;49961;43.970;22.868;2022-09-19T02:04:15;101266.19;;;10.10;100.00
63808;BME280;49961;43.970;22.868;2022-09-19T02:05:21;101344.00;;;10.56;100.00
63808;BME280;49961;43.970;22.868;2022-09-19T02:06:47;101342.84;;;10.54;100.00
63808;BME280;49961;43.970;22.868;2022-09-19T02:10:09;101337.81;;;10.45;100.00
63808;BME280;49961;43.970;22.868;2022-09-19T02:11:17;101343.75;;;10.44;100.00
63808;BME280;49961;43.970;22.868;2022-09-19T02:12:18;101314.28;;;10.27;100.00
63808;BME280;49961;43.970;22.868;2022-09-19T02:13:25;101339.09;;;10.37;100.00
63808;BME280;49961;43.970;22.868;2022-09-19T02:14:30;101338.72;;;10.35;100.00
63808;BME280;49961;43.970;22.868;2022-09-19T02:15:33;101335.66;;;10.26;100.00
63808;BME280;49961;43.970;22.868;2022-09-19T02:16:43;101345.59;;;10.24;100.00
63808;BME280;49961;43.970;22.868;2022-09-19T02:17:52;101352.72;;;10.25;100.00
63808;BME280;49961;43.970;22.868;2022-09-19T02:19:01;101336.94;;;10.18;100.00
63808;BME280;49961;43.970;22.868;2022-09-19T02:20:10;101329.44;;;10.15;100.00
63808;BME280;49961;43.970;22.868;2022-09-19T02:21:17;101328.28;;;10.13;100.00
63808;BME280;49961;43.970;22.868;2022-09-19T02:22:26;101256.41;;;9.65;100.00
63808;BME280;49961;43.970;22.868;2022-09-19T02:23:29;101336.28;;;10.07;100.00
63808;BME280;49961;43.970;22.868;2022-09-19T02:24:32;101334.72;;;10.06;100.00
63808;BME280;49961;43.970;22.868;2022-09-19T02:25:37;101337.78;;;10.12;100.00
63808;BME280;49961;43.970;22.868;2022-09-19T02:26:40;101333.81;;;10.13;100.00
63808;BME280;49961;43.970;22.868;2022-09-19T02:27:50;101335.78;;;10.16;100.00
63808;BME280;49961;43.970;22.868;2022-09-19T02:28:55;101319.63;;;10.11;100.00
63808;BME280;49961;43.970;22.868;2022-09-19T02:30:00;101229.19;;;9.57;100.00
63808;BME280;49961;43.970;22.868;2022-09-19T02:31:05;101329.03;;;10.17;100.00
63808;BME280;49961;43.970;22.868;2022-09-19T02:32:06;101338.91;;;10.18;100.00
63808;BME280;49961;43.970;22.868;2022-09-19T02:33:11;101335.34;;;10.21;100.00
63808;BME280;49961;43.970;22.868;2022-09-19T02:34:12;101335.69;;;10.23;100.00
63808;BME280;49961;43.970;22.868;2022-09-19T02:35:24;101341.63;;;10.25;100.00
63808;BME280;49961;43.970;22.868;2022-09-19T02:36:44;101338.00;;;10.28;100.00
63808;BME280;49961;43.970;22.868;2022-09-19T02:37:49;101337.59;;;10.29;100.00
63808;BME280;49961;43.970;22.868;2022-09-19T02:39:10;101338.75;;;10.32;100.00
63808;BME280;49961;43.970;22.868;2022-09-19T02:40:26;101338.34;;;10.33;100.00
63808;BME280;49961;43.970;22.868;2022-09-19T02:41:34;101217.72;;;9.58;100.00
63808;BME280;49961;43.970;22.868;2022-09-19T02:44:12;101336.28;;;10.41;100.00
63808;BME280;49961;43.970;22.868;2022-09-19T02:45:20;101338.66;;;10.42;100.00
63808;BME280;49961;43.970;22.868;2022-09-19T02:46:39;101309.91;;;10.29;100.00
63808;BME280;49961;43.970;22.868;2022-09-19T02:47:53;101335.03;;;10.45;100.00
63808;BME280;49961;43.970;22.868;2022-09-19T02:50:20;101264.69;;;10.06;100.00
63808;BME280;49961;43.970;22.868;2022-09-19T02:51:32;101335.00;;;10.49;100.00
63808;BME280;49961;43.970;22.868;2022-09-19T02:52:35;101331.81;;;10.50;100.00
63808;BME280;49961;43.970;22.868;2022-09-19T02:53:42;101338.16;;;10.51;100.00
63808;BME280;49961;43.970;22.868;2022-09-19T02:54:48;101329.00;;;10.54;100.00
63808;BME280;49961;43.970;22.868;2022-09-19T02:55:54;101334.13;;;10.55;100.00
63808;BME280;49961;43.970;22.868;2022-09-19T02:57:00;101338.03;;;10.58;100.00
63808;BME280;49961;43.970;22.868;2022-09-19T02:58:02;101244.09;;;10.03;100.00
63808;BME280;49961;43.970;22.868;2022-09-19T02:59:32;101328.50;;;10.62;100.00
63808;BME280;49961;43.970;22.868;2022-09-19T03:00:34;101210.28;;;9.89;100.00
63808;BME280;49961;43.970;22.868;2022-09-19T03:01:42;101326.09;;;10.64;100.00
63808;BME280;49961;43.970;22.868;2022-09-19T03:02:48;101326.44;;;10.66;100.00
63808;BME280;49961;43.970;22.868;2022-09-19T03:04:00;101329.63;;;10.68;100.00
63808;BME280;49961;43.970;22.868;2022-09-19T03:05:18;101333.63;;;10.64;100.00
63808;BME280;49961;43.970;22.868;2022-09-19T03:06:22;101330.91;;;10.60;100.00
63808;BME280;49961;43.970;22.868;2022-09-19T03:07:28;101326.09;;;10.64;100.00
63808;BME280;49961;43.970;22.868;2022-09-19T03:08:31;101300.47;;;10.57;100.00
63808;BME280;49961;43.970;22.868;2022-09-19T03:09:36;101322.53;;;10.64;100.00
63808;BME280;49961;43.970;22.868;2022-09-19T03:10:40;101316.25;;;10.60;100.00
63808;BME280;49961;43.970;22.868;2022-09-19T03:11:47;101336.91;;;10.55;100.00
63808;BME280;49961;43.970;22.868;2022-09-19T03:12:56;101322.28;;;10.55;100.00
63808;BME280;49961;43.970;22.868;2022-09-19T03:13:59;101320.25;;;10.55;100.00
63808;BME280;49961;43.970;22.868;2022-09-19T03:15:00;101322.63;;;10.57;100.00
63808;BME280;49961;43.970;22.868;2022-09-19T03:16:04;101247.59;;;10.11;100.00
63808;BME280;49961;43.970;22.868;2022-09-19T03:17:06;101324.56;;;10.60;100.00
63808;BME280;49961;43.970;22.868;2022-09-19T03:18:10;101331.69;;;10.61;100.00
63808;BME280;49961;43.970;22.868;2022-09-19T03:19:13;101317.03;;;10.60;100.00
63808;BME280;49961;43.970;22.868;2022-09-19T03:20:14;101322.97;;;10.62;100.00
63808;BME280;49961;43.970;22.868;2022-09-19T03:21:19;101325.69;;;10.66;100.00
63808;BME280;49961;43.970;22.868;2022-09-19T03:22:22;101311.81;;;10.66;100.00
63808;BME280;49961;43.970;22.868;2022-09-19T03:23:27;101256.09;;;10.27;100.00
63808;BME280;49961;43.970;22.868;2022-09-19T03:24:29;101319.28;;;10.69;100.00
63808;BME280;49961;43.970;22.868;2022-09-19T03:25:29;101314.13;;;10.71;100.00
63808;BME280;49961;43.970;22.868;2022-09-19T03:26:33;101320.03;;;10.73;100.00
63808;BME280;49961;43.970;22.868;2022-09-19T03:27:34;101315.69;;;10.72;100.00
63808;BME280;49961;43.970;22.868;2022-09-19T03:28:37;101316.84;;;10.74;100.00
63808;BME280;49961;43.970;22.868;2022-09-19T03:29:38;101317.22;;;10.76;100.00
63808;BME280;49961;43.970;22.868;2022-09-19T03:30:38;101315.22;;;10.77;100.00
63808;BME280;49961;43.970;22.868;2022-09-19T03:31:39;101314.03;;;10.78;100.00
63808;BME280;49961;43.970;22.868;2022-09-19T03:32:40;101311.31;;;10.74;100.00
63808;BME280;49961;43.970;22.868;2022-09-19T03:33:41;101316.84;;;10.74;100.00
63808;BME280;49961;43.970;22.868;2022-09-19T03:34:41;101318.09;;;10.70;100.00
63808;BME280;49961;43.970;22.868;2022-09-19T03:35:43;101309.78;;;10.70;100.00
63808;BME280;49961;43.970;22.868;2022-09-19T03:36:44;101330.78;;;10.71;100.00
63808;BME280;49961;43.970;22.868;2022-09-19T03:37:45;101314.50;;;10.73;100.00
63808;BME280;49961;43.970;22.868;2022-09-19T03:38:45;101298.38;;;10.64;100.00
63808;BME280;49961;43.970;22.868;2022-09-19T03:39:46;101308.16;;;10.72;100.00
63808;BME280;49961;43.970;22.868;2022-09-19T03:40:47;101309.09;;;10.62;100.00
63808;BME280;49961;43.970;22.868;2022-09-19T03:41:47;101298.09;;;10.55;100.00
63808;BME280;49961;43.970;22.868;2022-09-19T03:42:48;101301.56;;;10.63;100.00
63808;BME280;49961;43.970;22.868;2022-09-19T03:43:53;101305.94;;;10.60;100.00
63808;BME280;49961;43.970;22.868;2022-09-19T03:44:54;101292.84;;;10.64;100.00
63808;BME280;49961;43.970;22.868;2022-09-19T03:45:55;101206.94;;;10.04;100.00
63808;BME280;49961;43.970;22.868;2022-09-19T03:46:57;101300.28;;;10.67;100.00
63808;BME280;49961;43.970;22.868;2022-09-19T03:47:57;101295.25;;;10.62;100.00
63808;BME280;49961;43.970;22.868;2022-09-19T03:48:59;101305.47;;;10.65;100.00
63808;BME280;49961;43.970;22.868;2022-09-19T03:50:04;101302.72;;;10.65;100.00
63808;BME280;49961;43.970;22.868;2022-09-19T03:51:06;101285.38;;;10.58;100.00
63808;BME280;49961;43.970;22.868;2022-09-19T03:52:07;101305.03;;;10.70;100.00
63808;BME280;49961;43.970;22.868;2022-09-19T03:53:07;101309.34;;;10.71;100.00
63808;BME280;49961;43.970;22.868;2022-09-19T03:54:09;101308.16;;;10.72;100.00
63808;BME280;49961;43.970;22.868;2022-09-19T03:55:10;101310.16;;;10.72;100.00
63808;BME280;49961;43.970;22.868;2022-09-19T03:56:12;101306.19;;;10.73;100.00
63808;BME280;49961;43.970;22.868;2022-09-19T03:57:14;101306.19;;;10.73;100.00
63808;BME280;49961;43.970;22.868;2022-09-19T03:58:14;101304.63;;;10.72;100.00
63808;BME280;49961;43.970;22.868;2022-09-19T03:59:16;101308.16;;;10.72;100.00
63808;BME280;49961;43.970;22.868;2022-09-19T04:00:17;101307.75;;;10.74;100.00
63808;BME280;49961;43.970;22.868;2022-09-19T04:01:17;101308.94;;;10.73;100.00
63808;BME280;49961;43.970;22.868;2022-09-19T04:02:18;101290.88;;;10.61;100.00
63808;BME280;49961;43.970;22.868;2022-09-19T04:03:18;101304.97;;;10.74;100.00
63808;BME280;49961;43.970;22.868;2022-09-19T04:04:19;101302.59;;;10.76;100.00
63808;BME280;49961;43.970;22.868;2022-09-19T04:05:20;101299.41;;;10.74;100.00
63808;BME280;49961;43.970;22.868;2022-09-19T04:06:21;101286.66;;;10.53;100.00
63808;BME280;49961;43.970;22.868;2022-09-19T04:07:21;101298.38;;;10.64;100.00
63808;BME280;49961;43.970;22.868;2022-09-19T04:08:22;101296.44;;;10.61;100.00
63808;BME280;49961;43.970;22.868;2022-09-19T04:09:22;101291.72;;;10.58;100.00
63808;BME280;49961;43.970;22.868;2022-09-19T04:10:23;101263.97;;;10.32;100.00
63808;BME280;49961;43.970;22.868;2022-09-19T04:11:23;101288.34;;;10.44;100.00
63808;BME280;49961;43.970;22.868;2022-09-19T04:12:24;101285.63;;;10.40;100.00
63808;BME280;49961;43.970;22.868;2022-09-19T04:13:25;101290.84;;;10.35;100.00
63808;BME280;49961;43.970;22.868;2022-09-19T04:14:27;101294.44;;;10.32;100.00
63808;BME280;49961;43.970;22.868;2022-09-19T04:15:28;101284.97;;;10.29;100.00
63808;BME280;49961;43.970;22.868;2022-09-19T04:16:29;101273.97;;;10.22;100.00
63808;BME280;49961;43.970;22.868;2022-09-19T04:17:29;101289.34;;;10.27;100.00
63808;BME280;49961;43.970;22.868;2022-09-19T04:18:30;101173.13;;;9.49;100.00
63808;BME280;49961;43.970;22.868;2022-09-19T04:19:30;101292.97;;;10.20;100.00
63808;BME280;49961;43.970;22.868;2022-09-19T04:20:32;101290.31;;;10.13;100.00
63808;BME280;49961;43.970;22.868;2022-09-19T04:21:32;101242.44;;;9.76;100.00
63808;BME280;49961;43.970;22.868;2022-09-19T04:22:34;101285.28;;;10.05;100.00
63808;BME280;49961;43.970;22.868;2022-09-19T04:23:37;101287.66;;;9.99;100.00
63808;BME280;49961;43.970;22.868;2022-09-19T04:24:37;101291.63;;;9.98;100.00
63808;BME280;49961;43.970;22.868;2022-09-19T04:25:39;101292.44;;;9.99;100.00
63808;BME280;49961;43.970;22.868;2022-09-19T04:26:40;101273.94;;;9.89;100.00
63808;BME280;49961;43.970;22.868;2022-09-19T04:27:43;101286.13;;;9.95;100.00
63808;BME280;49961;43.970;22.868;2022-09-19T04:28:45;101281.50;;;9.85;100.00
63808;BME280;49961;43.970;22.868;2022-09-19T04:29:47;101289.31;;;9.93;100.00
63808;BME280;49961;43.970;22.868;2022-09-19T04:30:48;101202.16;;;9.34;100.00
63808;BME280;49961;43.970;22.868;2022-09-19T04:31:48;101284.31;;;9.81;100.00
63808;BME280;49961;43.970;22.868;2022-09-19T04:32:49;101279.53;;;9.82;100.00
63808;BME280;49961;43.970;22.868;2022-09-19T04:33:50;101287.75;;;9.92;100.00
63808;BME280;49961;43.970;22.868;2022-09-19T04:34:51;101289.28;;;9.97;100.00
63808;BME280;49961;43.970;22.868;2022-09-19T04:35:55;101288.06;;;9.98;100.00
63808;BME280;49961;43.970;22.868;2022-09-19T04:36:57;101287.66;;;9.99;100.00
63808;BME280;49961;43.970;22.868;2022-09-19T04:37:59;101294.00;;;10.00;100.00
63808;BME280;49961;43.970;22.868;2022-09-19T04:39:00;101290.81;;;10.01;100.00
63808;BME280;49961;43.970;22.868;2022-09-19T04:40:04;101297.13;;;10.02;100.00
63808;BME280;49961;43.970;22.868;2022-09-19T04:41:05;101292.38;;;10.02;100.00
63808;BME280;49961;43.970;22.868;2022-09-19T04:42:06;101296.34;;;10.01;100.00
63808;BME280;49961;43.970;22.868;2022-09-19T04:43:08;101284.94;;;9.96;100.00
63808;BME280;49961;43.970;22.868;2022-09-19T04:44:10;101267.34;;;9.76;100.00
63808;BME280;49961;43.970;22.868;2022-09-19T04:45:11;101297.97;;;9.99;100.00
63808;BME280;49961;43.970;22.868;2022-09-19T04:46:13;101193.47;;;9.32;100.00
63808;BME280;49961;43.970;22.868;2022-09-19T04:47:15;101302.31;;;10.00;100.00
63808;BME280;49961;43.970;22.868;2022-09-19T04:48:16;101292.44;;;9.99;100.00
63808;BME280;49961;43.970;22.868;2022-09-19T04:49:18;101297.91;;;10.06;100.00
63808;BME280;49961;43.970;22.868;2022-09-19T04:50:18;101300.22;;;10.11;100.00
63808;BME280;49961;43.970;22.868;2022-09-19T04:51:19;101165.88;;;9.29;100.00
63808;BME280;49961;43.970;22.868;2022-09-19T04:52:19;101293.03;;;10.17;100.00
63808;BME280;49961;43.970;22.868;2022-09-19T04:53:21;101230.16;;;9.77;100.00
63808;BME280;49961;43.970;22.868;2022-09-19T04:54:23;101291.00;;;10.21;100.00
63808;BME280;49961;43.970;22.868;2022-09-19T04:55:24;101292.97;;;10.24;100.00
63808;BME280;49961;43.970;22.868;2022-09-19T04:56:25;101191.59;;;9.63;100.00
63808;BME280;49961;43.970;22.868;2022-09-19T04:57:26;101292.13;;;10.27;100.00
63808;BME280;49961;43.970;22.868;2022-09-19T04:58:27;101304.41;;;10.26;100.00
63808;BME280;49961;43.970;22.868;2022-09-19T04:59:28;101292.13;;;10.27;100.00
63808;BME280;49961;43.970;22.868;2022-09-19T05:00:28;101303.16;;;10.30;100.00
63808;BME280;49961;43.970;22.868;2022-09-19T05:01:38;101298.41;;;10.31;100.00
63808;BME280;49961;43.970;22.868;2022-09-19T05:02:39;101308.28;;;10.32;100.00
63808;BME280;49961;43.970;22.868;2022-09-19T05:03:40;101303.50;;;10.36;100.00
63808;BME280;49961;43.970;22.868;2022-09-19T05:04:44;101301.47;;;10.40;100.00
63808;BME280;49961;43.970;22.868;2022-09-19T05:05:46;101310.56;;;10.40;100.00
63808;BME280;49961;43.970;22.868;2022-09-19T05:06:51;101301.09;;;10.38;100.00
63808;BME280;49961;43.970;22.868;2022-09-19T05:07:54;101312.09;;;10.45;100.00
63808;BME280;49961;43.970;22.868;2022-09-19T05:08:55;101314.88;;;10.41;100.00
63808;BME280;49961;43.970;22.868;2022-09-19T05:09:56;101288.53;;;10.30;100.00
63808;BME280;49961;43.970;22.868;2022-09-19T05:10:59;101314.03;;;10.48;100.00
63808;BME280;49961;43.970;22.868;2022-09-19T05:12:00;101308.88;;;10.50;100.00
63808;BME280;49961;43.970;22.868;2022-09-19T05:13:00;101063.16;;;8.90;100.00
63808;BME280;49961;43.970;22.868;2022-09-19T05:14:01;101306.09;;;10.50;100.00
63808;BME280;49961;43.970;22.868;2022-09-19T05:15:01;101312.69;;;10.59;100.00
63808;BME280;49961;43.970;22.868;2022-09-19T05:16:05;101287.97;;;10.42;100.00
63808;BME280;49961;43.970;22.868;2022-09-19T05:17:06;101330.03;;;10.67;100.00
63808;BME280;49961;43.970;22.868;2022-09-19T05:18:06;101307.50;;;10.61;100.00
63808;BME280;49961;43.970;22.868;2022-09-19T05:19:07;101297.31;;;10.55;100.00
63808;BME280;49961;43.970;22.868;2022-09-19T05:20:08;101325.13;;;10.78;100.00
63808;BME280;49961;43.970;22.868;2022-09-19T05:21:14;101303.50;;;10.66;100.00
63808;BME280;49961;43.970;22.868;2022-09-19T05:22:15;101327.78;;;10.85;100.00
63808;BME280;49961;43.970;22.868;2022-09-19T05:23:15;101325.81;;;10.85;100.00
63808;BME280;49961;43.970;22.868;2022-09-19T05:24:16;101240.69;;;10.26;100.00
63808;BME280;49961;43.970;22.868;2022-09-19T05:25:19;101320.50;;;10.68;100.00
63808;BME280;49961;43.970;22.868;2022-09-19T05:26:19;101246.41;;;10.12;100.00
63808;BME280;49961;43.970;22.868;2022-09-19T05:27:20;101331.69;;;10.61;100.00
63808;BME280;49961;43.970;22.868;2022-09-19T05:28:21;101334.41;;;10.64;100.00
63808;BME280;49961;43.970;22.868;2022-09-19T05:29:23;101328.47;;;10.66;100.00
63808;BME280;49961;43.970;22.868;2022-09-19T05:30:24;101338.34;;;10.67;100.00
63808;BME280;49961;43.970;22.868;2022-09-19T05:31:26;101344.25;;;10.69;100.00
63808;BME280;49961;43.970;22.868;2022-09-19T05:32:26;101341.09;;;10.67;100.00
63808;BME280;49961;43.970;22.868;2022-09-19T05:33:27;101317.13;;;10.53;100.00
63808;BME280;49961;43.970;22.868;2022-09-19T05:34:27;101340.75;;;10.65;100.00
63808;BME280;49961;43.970;22.868;2022-09-19T05:35:29;101330.44;;;10.65;100.00
63808;BME280;49961;43.970;22.868;2022-09-19T05:36:30;101279.47;;;10.26;100.00
63808;BME280;49961;43.970;22.868;2022-09-19T05:37:31;101323.72;;;10.63;100.00
63808;BME280;49961;43.970;22.868;2022-09-19T05:38:32;101334.69;;;10.73;100.00
63808;BME280;49961;43.970;22.868;2022-09-19T05:39:33;101329.50;;;10.75;100.00
63808;BME280;49961;43.970;22.868;2022-09-19T05:40:35;101331.03;;;10.80;100.00
63808;BME280;49961;43.970;22.868;2022-09-19T05:41:36;101326.28;;;10.80;100.00
63808;BME280;49961;43.970;22.868;2022-09-19T05:42:43;101328.91;;;10.91;100.00
63808;BME280;49961;43.970;22.868;2022-09-19T05:43:43;101331.63;;;10.94;100.00
63808;BME280;49961;43.970;22.868;2022-09-19T05:44:44;101329.59;;;10.98;100.00
63808;BME280;49961;43.970;22.868;2022-09-19T05:45:45;101221.59;;;10.35;100.00
63808;BME280;49961;43.970;22.868;2022-09-19T05:46:46;101312.84;;;11.05;100.00
63808;BME280;49961;43.970;22.868;2022-09-19T05:47:47;101328.13;;;11.17;100.00